createdAt,value
2018-03-11T00:01:56.187Z,8.00
2018-03-11T00:04:24.443Z,8.00
2018-03-11T00:06:53.488Z,7.90
2018-03-11T00:09:21.751Z,7.80
2018-03-11T00:11:50.020Z,8.00
2018-03-11T00:14:19.041Z,7.90
2018-03-11T00:16:47.312Z,8.00
2018-03-11T00:19:16.336Z,8.00
2018-03-11T00:21:44.611Z,7.80
2018-03-11T00:24:13.660Z,8.00
2018-03-11T00:26:41.924Z,8.10
2018-03-11T00:29:10.184Z,8.00
2018-03-11T00:31:39.224Z,8.00
2018-03-11T00:34:07.487Z,8.10
2018-03-11T00:36:36.532Z,7.90
2018-03-11T00:39:04.789Z,8.10
2018-03-11T00:41:33.823Z,7.90
2018-03-11T00:44:02.075Z,7.70
2018-03-11T00:46:31.121Z,7.90
2018-03-11T00:48:59.385Z,8.00
2018-03-11T00:51:27.667Z,7.90
2018-03-11T00:53:56.697Z,7.90
2018-03-11T00:56:24.969Z,7.80
2018-03-11T00:58:53.224Z,7.90
2018-03-11T01:01:21.501Z,7.80
2018-03-11T01:03:49.764Z,7.90
2018-03-11T01:06:18.036Z,7.90
2018-03-11T01:08:46.333Z,7.90
2018-03-11T01:11:14.598Z,8.00
2018-03-11T01:13:42.858Z,8.00
2018-03-11T01:16:11.123Z,7.90
2018-03-11T01:18:39.389Z,7.90
2018-03-11T01:21:07.665Z,7.90
2018-03-11T01:23:35.923Z,7.80
2018-03-11T01:26:04.961Z,7.80
2018-03-11T01:28:33.219Z,7.90
2018-03-11T01:31:01.484Z,7.90
2018-03-11T01:33:29.740Z,7.90
2018-03-11T01:35:58.013Z,7.90
2018-03-11T01:38:26.264Z,7.90
2018-03-11T01:40:55.298Z,7.90
2018-03-11T01:43:23.560Z,7.70
2018-03-11T01:45:53.492Z,8.00
2018-03-11T01:48:22.520Z,7.80
2018-03-11T01:50:50.787Z,8.00
2018-03-11T01:53:19.811Z,7.80
2018-03-11T01:55:48.088Z,7.90
2018-03-11T01:58:17.124Z,7.80
2018-03-11T02:00:45.384Z,8.00
2018-03-11T02:03:14.407Z,7.80
2018-03-11T02:05:42.685Z,8.00
2018-03-11T02:08:11.708Z,7.80
2018-03-11T02:10:39.984Z,8.10
2018-03-11T02:13:08.244Z,7.80
2018-03-11T02:15:36.522Z,7.80
2018-03-11T02:18:04.787Z,7.80
2018-03-11T02:20:33.048Z,7.80
2018-03-11T02:23:01.325Z,7.70
2018-03-11T02:25:29.587Z,7.70
2018-03-11T02:27:57.865Z,7.70
2018-03-11T02:30:26.137Z,7.70
2018-03-11T02:32:54.401Z,7.70
2018-03-11T02:35:22.655Z,7.70
2018-03-11T02:37:51.684Z,7.70
2018-03-11T02:40:19.940Z,7.50
2018-03-11T02:42:48.971Z,7.80
2018-03-11T02:45:17.228Z,7.90
2018-03-11T02:47:45.495Z,7.80
2018-03-11T02:50:13.752Z,7.80
2018-03-11T02:52:42.026Z,7.70
2018-03-11T02:55:10.284Z,7.70
2018-03-11T02:57:38.556Z,7.70
2018-03-11T03:00:06.816Z,7.80
2018-03-11T03:02:35.085Z,7.80
2018-03-11T03:05:03.341Z,7.70
2018-03-11T03:07:31.603Z,7.70
2018-03-11T03:09:59.868Z,7.80
2018-03-11T03:12:28.127Z,7.70
2018-03-11T03:14:56.383Z,7.70
2018-03-11T03:17:24.656Z,7.70
2018-03-11T03:19:52.914Z,7.70
2018-03-11T03:22:21.184Z,7.70
2018-03-11T03:24:49.454Z,7.70
2018-03-11T03:27:18.493Z,7.70
2018-03-11T03:29:46.768Z,8.00
2018-03-11T03:32:15.037Z,7.70
2018-03-11T03:34:44.068Z,7.70
2018-03-11T03:37:12.337Z,7.70
2018-03-11T03:39:41.357Z,7.70
2018-03-11T03:42:09.623Z,7.60
2018-03-11T03:44:38.647Z,7.70
2018-03-11T03:47:06.907Z,7.70
2018-03-11T03:49:35.164Z,7.70
2018-03-11T03:52:03.432Z,7.60
2018-03-11T03:54:31.702Z,7.70
2018-03-11T03:56:59.975Z,7.60
2018-03-11T03:59:28.997Z,7.70
2018-03-11T04:01:57.268Z,7.70
2018-03-11T04:04:26.293Z,7.70
2018-03-11T04:06:54.591Z,7.70
2018-03-11T04:09:22.848Z,7.70
2018-03-11T04:11:52.052Z,7.70
2018-03-11T04:14:21.971Z,7.60
2018-03-11T04:16:50.242Z,7.40
2018-03-11T04:19:18.499Z,7.60
2018-03-11T04:21:46.768Z,7.60
2018-03-11T04:24:15.027Z,7.60
2018-03-11T04:26:43.307Z,7.70
2018-03-11T04:29:11.563Z,7.70
2018-03-11T04:31:39.831Z,7.70
2018-03-11T04:34:08.096Z,7.70
2018-03-11T04:36:37.132Z,7.60
2018-03-11T04:39:05.421Z,7.70
2018-03-11T04:41:33.688Z,7.70
2018-03-11T04:44:02.718Z,7.70
2018-03-11T04:46:30.986Z,7.70
2018-03-11T04:49:00.022Z,7.80
2018-03-11T04:51:28.283Z,8.00
2018-03-11T04:53:56.557Z,7.70
2018-03-11T04:56:25.584Z,7.70
2018-03-11T04:58:53.864Z,7.70
2018-03-11T05:01:22.897Z,7.70
2018-03-11T05:03:51.168Z,8.00
2018-03-11T05:06:19.425Z,7.70
2018-03-11T05:08:47.696Z,7.70
2018-03-11T05:11:15.963Z,7.80
2018-03-11T05:13:44.240Z,7.70
2018-03-11T05:16:12.506Z,7.70
2018-03-11T05:18:41.548Z,7.70
2018-03-11T05:21:09.804Z,8.00
2018-03-11T05:23:38.076Z,7.80
2018-03-11T05:26:07.102Z,7.70
2018-03-11T05:28:35.371Z,7.60
2018-03-11T05:31:04.400Z,7.70
2018-03-11T05:33:32.667Z,7.80
2018-03-11T05:36:01.692Z,7.70
2018-03-11T05:38:29.965Z,7.80
2018-03-11T05:40:58.988Z,7.70
2018-03-11T05:43:27.255Z,7.70
2018-03-11T05:45:56.278Z,7.70
2018-03-11T05:48:24.551Z,7.70
2018-03-11T05:50:54.476Z,7.80
2018-03-11T05:53:23.555Z,7.80
2018-03-11T05:55:51.785Z,8.00
2018-03-11T05:58:20.057Z,7.80
2018-03-11T06:00:49.231Z,7.70
2018-03-11T06:03:17.500Z,8.00
2018-03-11T06:05:46.531Z,7.80
2018-03-11T06:08:14.808Z,7.70
2018-03-11T06:10:43.068Z,7.80
2018-03-11T06:13:11.332Z,7.80
2018-03-11T06:15:40.368Z,7.90
2018-03-11T06:18:08.640Z,8.00
2018-03-11T06:20:36.908Z,7.80
2018-03-11T06:23:05.944Z,7.90
2018-03-11T06:25:34.195Z,7.80
2018-03-11T06:28:02.468Z,7.90
2018-03-11T06:30:30.729Z,7.90
2018-03-11T06:32:59.011Z,7.90
2018-03-11T06:35:27.268Z,8.00
2018-03-11T06:37:56.300Z,8.10
2018-03-11T06:40:24.560Z,8.40
2018-03-11T06:42:53.592Z,8.10
2018-03-11T06:45:21.861Z,8.30
2018-03-11T06:47:50.129Z,8.20
2018-03-11T06:50:18.387Z,8.20
2018-03-11T06:52:46.651Z,8.30
2018-03-11T06:55:14.918Z,8.30
2018-03-11T06:57:43.188Z,8.40
2018-03-11T07:00:12.216Z,8.50
2018-03-11T07:02:40.483Z,8.60
2018-03-11T07:05:09.507Z,8.50
2018-03-11T07:07:37.775Z,8.60
2018-03-11T07:10:06.801Z,8.60
2018-03-11T07:12:35.077Z,8.70
2018-03-11T07:15:04.996Z,8.60
2018-03-11T07:17:34.041Z,8.50
2018-03-11T07:20:02.304Z,8.50
2018-03-11T07:22:31.333Z,8.60
2018-03-11T07:24:59.597Z,8.70
2018-03-11T07:27:28.626Z,8.50
2018-03-11T07:29:56.884Z,8.60
2018-03-11T07:32:25.932Z,8.70
2018-03-11T07:34:54.183Z,8.80
2018-03-11T07:37:23.217Z,8.90
2018-03-11T07:39:51.489Z,9.10
2018-03-11T07:42:19.753Z,9.10
2018-03-11T07:44:48.027Z,9.30
2018-03-11T07:47:16.276Z,9.50
2018-03-11T07:49:44.558Z,9.50
2018-03-11T07:52:12.807Z,9.60
2018-03-11T07:54:41.876Z,9.90
2018-03-11T07:57:10.100Z,9.90
2018-03-11T07:59:39.136Z,10.30
2018-03-11T08:02:07.395Z,10.50
2018-03-11T08:04:36.431Z,10.50
2018-03-11T08:07:05.461Z,10.90
2018-03-11T08:09:34.490Z,10.60
2018-03-11T08:12:02.757Z,10.60
2018-03-11T08:14:31.034Z,10.70
2018-03-11T08:16:59.296Z,10.80
2018-03-11T08:19:28.330Z,10.90
2018-03-11T08:21:56.593Z,10.80
2018-03-11T08:24:25.630Z,11.10
2018-03-11T08:26:57.407Z,11.10
2018-03-11T08:29:25.675Z,11.20
2018-03-11T08:31:53.939Z,11.40
2018-03-11T08:34:22.971Z,11.60
2018-03-11T08:36:51.237Z,11.50
2018-03-11T08:39:19.512Z,11.50
2018-03-11T08:41:47.771Z,11.40
2018-03-11T08:44:16.039Z,11.50
2018-03-11T08:46:44.308Z,11.50
2018-03-11T08:49:12.599Z,11.70
2018-03-11T08:51:41.613Z,11.80
2018-03-11T08:54:09.880Z,12.20
2018-03-11T08:56:38.908Z,12.00
2018-03-11T08:59:07.195Z,12.10
2018-03-11T09:01:36.205Z,12.00
2018-03-11T09:04:04.472Z,12.00
2018-03-11T09:06:33.505Z,12.20
2018-03-11T09:09:01.778Z,12.20
2018-03-11T09:11:30.049Z,12.20
2018-03-11T09:13:59.156Z,12.10
2018-03-11T09:16:28.176Z,12.00
2018-03-11T09:18:56.448Z,12.00
2018-03-11T09:21:25.471Z,12.00
2018-03-11T09:23:53.744Z,12.00
2018-03-11T09:26:22.765Z,12.20
2018-03-11T09:28:51.067Z,12.20
2018-03-11T09:31:19.332Z,12.30
2018-03-11T09:33:48.367Z,12.30
2018-03-11T09:36:16.640Z,12.40
2018-03-11T09:38:44.912Z,12.20
2018-03-11T09:41:13.933Z,12.20
2018-03-11T09:43:42.203Z,12.30
2018-03-11T09:46:11.228Z,12.60
2018-03-11T09:48:39.496Z,12.70
2018-03-11T09:51:08.529Z,13.00
2018-03-11T09:53:36.796Z,13.20
2018-03-11T09:56:05.815Z,12.70
2018-03-11T09:58:34.112Z,12.50
2018-03-11T10:01:03.120Z,12.80
2018-03-11T10:03:31.383Z,12.70
2018-03-11T10:06:00.433Z,12.30
2018-03-11T10:08:28.703Z,12.30
2018-03-11T10:10:56.972Z,12.00
2018-03-11T10:13:26.128Z,12.00
2018-03-11T10:15:55.100Z,12.10
2018-03-11T10:18:23.390Z,12.10
2018-03-11T10:20:51.657Z,12.30
2018-03-11T10:23:20.697Z,12.40
2018-03-11T10:25:48.960Z,12.40
2018-03-11T10:28:17.997Z,12.50
2018-03-11T10:30:46.266Z,12.40
2018-03-11T10:33:14.519Z,12.90
2018-03-11T10:35:42.793Z,13.30
2018-03-11T10:38:11.048Z,13.50
2018-03-11T10:40:39.317Z,13.50
2018-03-11T10:43:07.574Z,13.40
2018-03-11T10:45:35.838Z,13.40
2018-03-11T10:48:04.091Z,13.70
2018-03-11T10:50:32.361Z,14.00
2018-03-11T10:53:01.383Z,14.10
2018-03-11T10:55:29.656Z,14.10
2018-03-11T10:57:58.685Z,13.50
2018-03-11T11:00:27.860Z,13.40
2018-03-11T11:05:58.621Z,13.60
2018-03-11T11:08:26.932Z,13.60
2018-03-11T11:10:55.176Z,13.80
2018-03-11T11:13:23.443Z,14.10
2018-03-11T11:15:51.731Z,14.10
2018-03-11T11:18:19.979Z,14.30
2018-03-11T11:20:48.250Z,14.60
2018-03-11T11:23:16.508Z,15.00
2018-03-11T11:25:44.783Z,15.20
2018-03-11T11:28:13.053Z,15.40
2018-03-11T11:30:42.079Z,14.60
2018-03-11T11:33:10.348Z,14.60
2018-03-11T11:35:38.647Z,14.40
2018-03-11T11:38:06.915Z,14.30
2018-03-11T11:40:35.964Z,14.00
2018-03-11T11:43:07.471Z,14.30
2018-03-11T11:45:35.749Z,13.90
2018-03-11T11:48:04.019Z,13.80
2018-03-11T11:50:32.295Z,14.00
2018-03-11T11:53:00.563Z,14.00
2018-03-11T11:55:28.827Z,14.10
2018-03-11T11:57:57.860Z,13.90
2018-03-11T12:00:26.740Z,13.80
2018-03-11T12:02:55.765Z,13.90
2018-03-11T12:05:24.084Z,13.60
2018-03-11T12:07:53.076Z,13.80
2018-03-11T12:10:21.359Z,13.70
2018-03-11T12:12:49.616Z,13.80
2018-03-11T12:15:18.660Z,14.00
2018-03-11T12:17:46.925Z,14.20
2018-03-11T12:20:15.959Z,13.90
2018-03-11T12:22:44.220Z,14.10
2018-03-11T12:25:13.256Z,13.50
2018-03-11T12:27:41.516Z,13.60
2018-03-11T12:30:10.548Z,13.50
2018-03-11T12:32:38.837Z,13.20
2018-03-11T12:35:07.848Z,13.50
2018-03-11T12:37:36.113Z,13.50
2018-03-11T12:40:04.456Z,13.60
2018-03-11T12:42:32.715Z,13.50
2018-03-11T12:45:00.991Z,13.50
2018-03-11T12:47:29.265Z,13.60
2018-03-11T12:49:58.304Z,13.70
2018-03-11T12:52:26.573Z,13.70
2018-03-11T12:54:54.839Z,13.70
2018-03-11T12:57:23.877Z,13.60
2018-03-11T12:59:52.146Z,13.60
2018-03-11T13:02:21.171Z,13.80
2018-03-11T13:04:49.446Z,13.70
2018-03-11T13:07:17.716Z,13.80
2018-03-11T13:09:46.748Z,13.80
2018-03-11T13:12:15.004Z,13.80
2018-03-11T13:14:44.937Z,13.70
2018-03-11T13:17:13.965Z,13.70
2018-03-11T13:19:42.243Z,13.60
2018-03-11T13:22:11.263Z,13.90
2018-03-11T13:24:39.541Z,13.80
2018-03-11T13:27:07.812Z,14.10
2018-03-11T13:29:36.907Z,14.30
2018-03-11T13:32:22.906Z,14.20
2018-03-11T13:34:51.185Z,14.30
2018-03-11T13:37:19.482Z,14.40
2018-03-11T13:40:05.365Z,14.50
2018-03-11T13:42:33.630Z,14.60
2018-03-11T13:45:19.792Z,14.80
2018-03-11T13:47:48.055Z,14.90
2018-03-11T13:50:16.323Z,14.80
2018-03-11T13:53:02.336Z,15.00
2018-03-11T13:55:30.612Z,15.10
2018-03-11T14:01:11.272Z,15.70
2018-03-11T14:03:39.711Z,15.70
2018-03-11T14:06:07.999Z,15.50
2018-03-11T14:08:37.008Z,15.10
2018-03-11T14:11:05.276Z,15.10
2018-03-11T14:13:34.318Z,14.80
2018-03-11T14:16:02.608Z,14.70
2018-03-11T14:18:30.858Z,14.70
2018-03-11T14:20:59.902Z,14.40
2018-03-11T14:23:28.163Z,14.40
2018-03-11T14:25:56.436Z,14.40
2018-03-11T14:28:25.460Z,14.20
2018-03-11T14:30:54.443Z,14.20
2018-03-11T14:33:22.695Z,14.30
2018-03-11T14:35:51.061Z,14.40
2018-03-11T14:38:20.094Z,14.50
2018-03-11T14:40:48.375Z,14.50
2018-03-11T14:43:17.400Z,14.60
2018-03-11T14:45:45.677Z,14.60
2018-03-11T14:48:13.951Z,14.60
2018-03-11T14:50:42.240Z,14.60
2018-03-11T14:53:10.479Z,14.50
2018-03-11T14:55:39.310Z,14.40
2018-03-11T14:58:07.585Z,14.30
2018-03-11T15:00:35.872Z,14.30
2018-03-11T15:03:04.909Z,14.20
2018-03-11T15:05:33.183Z,14.20
2018-03-11T15:08:01.448Z,14.10
2018-03-11T15:10:30.487Z,14.20
2018-03-11T15:12:58.752Z,14.10
2018-03-11T15:15:27.780Z,14.20
2018-03-11T15:17:56.053Z,14.20
2018-03-11T15:20:25.079Z,14.20
2018-03-11T15:22:53.355Z,14.20
2018-03-11T15:25:21.615Z,14.00
2018-03-11T15:27:49.881Z,13.90
2018-03-11T15:30:18.161Z,13.80
2018-03-11T15:32:46.453Z,13.70
2018-03-11T15:35:14.713Z,13.70
2018-03-11T15:37:43.009Z,13.60
2018-03-11T15:40:11.297Z,13.60
2018-03-11T15:42:39.516Z,13.50
2018-03-11T15:45:07.778Z,13.50
2018-03-11T15:47:36.045Z,13.40
2018-03-11T15:50:04.311Z,13.40
2018-03-11T15:52:33.341Z,13.30
2018-03-11T15:55:01.626Z,13.30
2018-03-11T15:57:29.951Z,13.30
2018-03-11T15:59:58.937Z,13.20
2018-03-11T16:02:27.258Z,13.30
2018-03-11T16:04:56.226Z,13.10
2018-03-11T16:07:24.500Z,13.10
2018-03-11T16:09:53.543Z,13.00
2018-03-11T16:12:21.812Z,13.00
2018-03-11T16:14:50.068Z,13.00
2018-03-11T16:17:18.341Z,13.00
2018-03-11T16:19:46.611Z,13.00
2018-03-11T16:22:14.884Z,12.90
2018-03-11T16:24:43.155Z,12.80
2018-03-11T16:27:11.433Z,12.80
2018-03-11T16:29:40.464Z,12.70
2018-03-11T16:32:08.739Z,12.60
2018-03-11T16:34:36.993Z,12.60
2018-03-11T16:37:05.260Z,12.40
2018-03-11T16:39:33.529Z,12.30
2018-03-11T16:42:01.810Z,12.30
2018-03-11T16:44:30.072Z,12.30
2018-03-11T16:46:58.352Z,12.30
2018-03-11T16:49:27.384Z,12.10
2018-03-11T16:51:55.653Z,12.30
2018-03-11T16:54:24.672Z,11.90
2018-03-11T16:56:53.000Z,12.20
2018-03-11T16:59:21.212Z,11.80
2018-03-11T17:01:49.484Z,11.60
2018-03-11T17:04:17.748Z,11.40
2018-03-11T17:06:46.020Z,11.10
2018-03-11T17:09:14.283Z,10.90
2018-03-11T17:11:43.315Z,10.60
2018-03-11T17:14:11.591Z,10.40
2018-03-11T17:16:39.860Z,10.40
2018-03-11T17:19:08.894Z,10.00
2018-03-11T17:21:37.155Z,9.90
2018-03-11T17:24:05.404Z,9.80
2018-03-11T17:26:34.568Z,9.60
2018-03-11T17:29:03.588Z,9.30
2018-03-11T17:31:31.851Z,9.30
2018-03-11T17:34:00.888Z,9.00
2018-03-11T17:36:29.152Z,9.10
2018-03-11T17:38:58.182Z,8.60
2018-03-11T17:41:29.595Z,8.70
2018-03-11T17:43:57.861Z,8.50
2018-03-11T17:46:26.131Z,8.30
2018-03-11T17:49:12.944Z,8.20
2018-03-11T17:51:41.212Z,8.10
2018-03-11T17:54:10.240Z,7.70
2018-03-11T17:56:38.534Z,8.00
2018-03-11T17:59:09.456Z,7.50
2018-03-11T18:01:38.485Z,7.30
2018-03-11T18:04:06.740Z,7.70
2018-03-11T18:06:35.767Z,7.20
2018-03-11T18:09:04.053Z,7.30
2018-03-11T18:11:33.087Z,7.00
2018-03-11T18:14:01.353Z,7.30
2018-03-11T18:16:30.396Z,6.80
2018-03-11T18:18:58.658Z,6.80
2018-03-11T18:21:26.923Z,6.60
2018-03-11T18:23:55.943Z,6.50
2018-03-11T18:26:24.199Z,6.40
2018-03-11T18:28:52.540Z,6.40
2018-03-11T18:31:20.792Z,6.30
2018-03-11T18:33:49.820Z,6.10
2018-03-11T18:36:18.100Z,6.10
2018-03-11T18:38:46.444Z,6.30
2018-03-11T18:41:14.709Z,6.40
2018-03-11T18:43:42.976Z,6.50
2018-03-11T18:46:11.246Z,6.50
2018-03-11T18:48:40.276Z,6.30
2018-03-11T18:51:08.540Z,6.40
2018-03-11T18:53:37.571Z,6.40
2018-03-11T18:56:05.845Z,6.40
2018-03-11T18:58:34.886Z,6.40
2018-03-11T19:01:03.133Z,6.40
2018-03-11T19:03:32.176Z,6.40
2018-03-11T19:06:00.428Z,6.40
2018-03-11T19:08:29.477Z,6.30
2018-03-11T19:10:57.745Z,6.20
2018-03-11T19:13:26.007Z,6.20
2018-03-11T19:15:55.220Z,6.10
2018-03-11T19:18:24.244Z,6.00
2018-03-11T19:20:52.496Z,6.00
2018-03-11T19:23:20.769Z,6.00
2018-03-11T19:25:49.036Z,6.00
2018-03-11T19:28:17.331Z,5.90
2018-03-11T19:30:45.603Z,6.10
2018-03-11T19:33:13.867Z,6.10
2018-03-11T19:35:42.127Z,6.00
2018-03-11T19:38:10.388Z,6.00
2018-03-11T19:40:38.652Z,6.10
2018-03-11T19:43:06.924Z,6.10
2018-03-11T19:45:35.193Z,6.20
2018-03-11T19:48:04.223Z,6.30
2018-03-11T19:50:32.489Z,6.40
2018-03-11T19:53:01.516Z,6.20
2018-03-11T19:55:29.775Z,6.30
2018-03-11T19:57:58.040Z,6.10
2018-03-11T20:00:26.296Z,6.10
2018-03-11T20:02:54.576Z,6.00
2018-03-11T20:05:23.004Z,6.10
2018-03-11T20:07:51.284Z,6.00
2018-03-11T20:10:19.540Z,6.00
2018-03-11T20:12:47.832Z,6.00
2018-03-11T20:15:16.097Z,6.00
2018-03-11T20:17:45.127Z,6.00
2018-03-11T20:20:13.380Z,6.00
2018-03-11T20:22:41.650Z,5.90
2018-03-11T20:25:09.909Z,5.90
2018-03-11T20:27:38.166Z,5.80
2018-03-11T20:30:07.191Z,5.90
2018-03-11T20:32:35.459Z,5.90
2018-03-11T20:35:04.492Z,5.90
2018-03-11T20:37:32.768Z,6.00
2018-03-11T20:40:01.021Z,5.80
2018-03-11T20:42:29.294Z,5.60
2018-03-11T20:44:57.544Z,5.70
2018-03-11T20:47:25.825Z,5.70
2018-03-11T20:49:54.097Z,5.70
2018-03-11T20:52:23.124Z,5.70
2018-03-11T20:54:51.439Z,5.60
2018-03-11T20:57:19.649Z,5.80
2018-03-11T20:59:47.922Z,5.70
2018-03-11T21:02:16.184Z,5.70
2018-03-11T21:04:44.456Z,5.70
2018-03-11T21:07:12.764Z,5.70
2018-03-11T21:09:41.757Z,5.50
2018-03-11T21:12:10.019Z,5.70
2018-03-11T21:14:39.054Z,5.40
2018-03-11T21:17:07.315Z,5.30
2018-03-11T21:19:36.342Z,5.30
2018-03-11T21:22:04.595Z,5.40
2018-03-11T21:24:32.864Z,5.40
2018-03-11T21:27:01.120Z,5.30
2018-03-11T21:29:30.153Z,5.30
2018-03-11T21:31:58.413Z,5.40
2018-03-11T21:34:27.377Z,5.40
2018-03-11T21:36:55.630Z,5.20
2018-03-11T21:39:23.900Z,5.10
2018-03-11T21:41:52.160Z,4.90
2018-03-11T21:44:20.430Z,5.00
2018-03-11T21:46:48.693Z,5.00
2018-03-11T21:49:16.974Z,4.80
2018-03-11T21:51:45.228Z,5.20
2018-03-11T21:54:13.492Z,5.10
2018-03-11T21:56:42.516Z,4.70
2018-03-11T21:59:10.780Z,4.70
2018-03-11T22:01:39.800Z,4.60
2018-03-11T22:04:08.836Z,4.70
2018-03-11T22:06:37.095Z,4.60
2018-03-11T22:09:05.430Z,4.60
2018-03-11T22:11:33.700Z,4.60
2018-03-11T22:14:02.736Z,4.60
2018-03-11T22:16:31.003Z,4.80
2018-03-11T22:18:59.282Z,4.80
2018-03-11T22:21:27.541Z,4.60
2018-03-11T22:23:56.593Z,4.20
2018-03-11T22:26:24.843Z,4.60
2018-03-11T22:28:53.119Z,4.30
2018-03-11T22:31:21.370Z,4.60
2018-03-11T22:33:49.644Z,4.50
2018-03-11T22:36:17.899Z,4.10
2018-03-11T22:38:46.165Z,4.20
2018-03-11T22:41:15.207Z,3.90
2018-03-11T22:43:43.477Z,3.90
2018-03-11T22:46:12.501Z,3.90
2018-03-11T22:48:40.768Z,4.10
2018-03-11T22:51:09.791Z,3.80
2018-03-11T22:53:38.069Z,3.60
2018-03-11T22:56:07.092Z,3.90
2018-03-11T22:58:35.374Z,4.00
2018-03-11T23:01:03.640Z,4.00
2018-03-11T23:03:32.664Z,3.90
2018-03-11T23:06:00.944Z,4.00
2018-03-11T23:08:29.200Z,4.00
2018-03-11T23:10:57.463Z,4.00
2018-03-11T23:13:25.732Z,4.00
2018-03-11T23:15:53.999Z,4.20
2018-03-11T23:18:22.259Z,4.10
2018-03-11T23:20:50.538Z,4.10
2018-03-11T23:23:18.799Z,4.10
2018-03-11T23:25:47.064Z,4.50
2018-03-11T23:28:15.327Z,4.10
2018-03-11T23:30:44.373Z,4.00
2018-03-11T23:33:12.641Z,4.20
2018-03-11T23:35:40.921Z,4.00
2018-03-11T23:38:09.943Z,4.00
2018-03-11T23:40:38.220Z,3.80
2018-03-11T23:43:06.479Z,4.00
2018-03-11T23:45:34.749Z,4.00
2018-03-11T23:48:03.012Z,4.00
2018-03-11T23:50:31.620Z,4.50
2018-03-11T23:52:59.878Z,4.20
2018-03-11T23:55:28.148Z,4.50
2018-03-11T23:57:57.172Z,4.50
